createdAt,value
2022-10-23T00:00:12.250Z,13.55
2022-10-23T00:01:12.213Z,13.57
2022-10-23T00:02:12.238Z,13.54
2022-10-23T00:03:12.176Z,13.54
2022-10-23T00:04:12.165Z,13.55
2022-10-23T00:05:12.145Z,13.54
2022-10-23T00:06:12.148Z,13.52
2022-10-23T00:07:12.138Z,13.54
2022-10-23T00:08:12.105Z,13.52
2022-10-23T00:09:12.098Z,13.51
2022-10-23T00:10:12.095Z,13.49
2022-10-23T00:11:12.065Z,13.51
2022-10-23T00:12:12.077Z,13.48
2022-10-23T00:13:12.045Z,13.48
2022-10-23T00:14:12.029Z,13.46
2022-10-23T00:15:12.022Z,13.48
2022-10-23T00:16:12.015Z,13.48
2022-10-23T00:17:12.015Z,13.46
2022-10-23T00:18:11.973Z,13.46
2022-10-23T00:19:11.967Z,13.45
2022-10-23T00:20:11.953Z,13.45
2022-10-23T00:21:11.934Z,13.46
2022-10-23T00:22:11.942Z,13.45
2022-10-23T00:23:11.914Z,13.45
2022-10-23T00:24:11.920Z,13.42
2022-10-23T00:25:11.893Z,13.44
2022-10-23T00:26:11.883Z,13.42
2022-10-23T00:27:11.871Z,13.42
2022-10-23T00:28:11.852Z,13.42
2022-10-23T00:29:11.843Z,13.42
2022-10-23T00:30:11.823Z,13.42
2022-10-23T00:31:11.812Z,13.42
2022-10-23T00:32:11.813Z,13.44
2022-10-23T00:33:11.782Z,13.45
2022-10-23T00:34:11.789Z,13.44
2022-10-23T00:35:11.768Z,13.44
2022-10-23T00:36:11.761Z,13.39
2022-10-23T00:37:11.751Z,13.39
2022-10-23T00:38:11.731Z,13.33
2022-10-23T00:39:11.709Z,13.32
2022-10-23T00:40:11.710Z,13.30
2022-10-23T00:41:11.680Z,13.32
2022-10-23T00:42:11.683Z,13.30
2022-10-23T00:43:11.660Z,13.29
2022-10-23T00:44:11.650Z,13.26
2022-10-23T00:45:11.630Z,13.26
2022-10-23T00:46:11.629Z,13.26
2022-10-23T00:47:11.621Z,13.26
2022-10-23T00:48:11.599Z,13.25
2022-10-23T00:50:11.569Z,13.23
2022-10-23T00:51:11.559Z,13.25
2022-10-23T00:52:11.559Z,13.22
2022-10-23T00:53:11.527Z,13.20
2022-10-23T00:54:26.848Z,13.22
2022-10-23T00:55:12.510Z,13.22
2022-10-23T00:56:11.500Z,13.20
2022-10-23T00:57:11.487Z,13.19
2022-10-23T00:58:11.477Z,13.17
2022-10-23T00:59:11.459Z,13.15
2022-10-23T01:00:11.438Z,13.17
2022-10-23T01:01:11.514Z,13.20
2022-10-23T01:02:11.638Z,13.20
2022-10-23T01:03:11.397Z,13.22
2022-10-23T01:04:11.397Z,13.23
2022-10-23T01:05:11.376Z,13.25
2022-10-23T01:06:11.366Z,13.26
2022-10-23T01:07:11.370Z,13.26
2022-10-23T01:08:11.336Z,13.29
2022-10-23T01:09:11.326Z,13.33
2022-10-23T01:10:11.314Z,13.32
2022-10-23T01:11:11.304Z,13.33
2022-10-23T01:12:11.348Z,13.30
2022-10-23T01:13:11.265Z,13.29
2022-10-23T01:14:11.255Z,13.29
2022-10-23T01:15:11.254Z,13.26
2022-10-23T01:16:11.235Z,13.26
2022-10-23T01:17:11.235Z,13.22
2022-10-23T01:18:11.218Z,13.19
2022-10-23T01:19:11.185Z,13.14
2022-10-23T01:20:11.187Z,13.11
2022-10-23T01:21:11.164Z,13.10
2022-10-23T01:22:11.217Z,13.05
2022-10-23T01:23:11.155Z,13.03
2022-10-23T01:24:11.139Z,13.00
2022-10-23T01:25:11.114Z,12.97
2022-10-23T01:26:11.113Z,12.95
2022-10-23T01:27:11.093Z,12.93
2022-10-23T01:28:11.105Z,12.89
2022-10-23T01:29:11.063Z,12.85
2022-10-23T01:30:11.063Z,12.83
2022-10-23T01:31:11.035Z,12.82
2022-10-23T01:32:11.033Z,12.82
2022-10-23T01:33:11.023Z,12.82
2022-10-23T01:34:11.002Z,12.82
2022-10-23T01:35:10.994Z,12.83
2022-10-23T01:36:10.982Z,12.87
2022-10-23T01:37:10.953Z,12.89
2022-10-23T01:38:10.980Z,12.87
2022-10-23T01:39:10.937Z,12.86
2022-10-23T01:40:10.920Z,12.85
2022-10-23T01:41:10.902Z,12.85
2022-10-23T01:42:10.892Z,12.83
2022-10-23T01:43:10.891Z,12.85
2022-10-23T01:44:10.871Z,12.86
2022-10-23T01:45:10.857Z,12.85
2022-10-23T01:46:10.840Z,12.83
2022-10-23T01:47:10.905Z,12.82
2022-10-23T01:48:10.831Z,12.79
2022-10-23T01:49:10.810Z,12.79
2022-10-23T01:50:10.789Z,12.77
2022-10-23T01:51:10.780Z,12.77
2022-10-23T01:52:10.769Z,12.78
2022-10-23T01:53:10.771Z,12.77
2022-10-23T01:54:10.739Z,12.77
2022-10-23T01:55:10.718Z,12.75
2022-10-23T01:56:10.710Z,12.75
2022-10-23T01:57:10.699Z,12.74
2022-10-23T01:58:10.709Z,12.72
2022-10-23T01:59:10.669Z,12.72
2022-10-23T02:00:10.666Z,12.71
2022-10-23T02:01:10.749Z,12.71
2022-10-23T02:02:10.836Z,12.71
2022-10-23T02:03:10.638Z,12.71
2022-10-23T02:04:10.611Z,12.70
2022-10-23T02:05:10.602Z,12.70
2022-10-23T02:06:10.588Z,12.70
2022-10-23T02:07:10.597Z,12.68
2022-10-23T02:08:10.584Z,12.68
2022-10-23T02:09:10.546Z,12.67
2022-10-23T02:10:10.549Z,12.70
2022-10-23T02:11:10.517Z,12.72
2022-10-23T02:12:10.510Z,12.77
2022-10-23T02:13:10.507Z,12.75
2022-10-23T02:14:10.486Z,12.77
2022-10-23T02:15:10.466Z,12.77
2022-10-23T02:16:10.466Z,12.77
2022-10-23T02:17:10.446Z,12.77
2022-10-23T02:18:10.456Z,12.77
2022-10-23T02:19:10.745Z,12.75
2022-10-23T02:20:10.409Z,12.75
2022-10-23T02:21:10.388Z,12.75
2022-10-23T02:22:10.376Z,12.75
2022-10-23T02:23:10.375Z,12.75
2022-10-23T02:24:10.345Z,12.75
2022-10-23T02:25:10.337Z,12.77
2022-10-23T02:26:10.324Z,12.79
2022-10-23T02:27:10.314Z,12.79
2022-10-23T02:28:10.305Z,12.83
2022-10-23T02:29:10.304Z,12.85
2022-10-23T02:30:10.276Z,12.86
2022-10-23T02:31:10.264Z,12.89
2022-10-23T02:32:10.253Z,12.90
2022-10-23T02:33:10.273Z,12.89
2022-10-23T02:34:10.219Z,12.89
2022-10-23T02:35:10.213Z,12.89
2022-10-23T02:36:10.183Z,12.89
2022-10-23T02:37:10.211Z,12.87
2022-10-23T02:38:10.174Z,12.87
2022-10-23T02:39:10.175Z,12.90
2022-10-23T02:40:10.144Z,12.93
2022-10-23T02:41:10.122Z,12.93
2022-10-23T02:42:10.112Z,12.95
2022-10-23T02:43:10.112Z,12.96
2022-10-23T02:44:10.092Z,12.96
2022-10-23T02:45:10.083Z,12.97
2022-10-23T02:46:10.061Z,13.01
2022-10-23T02:47:10.052Z,13.01
2022-10-23T02:48:10.063Z,13.01
2022-10-23T02:49:10.021Z,13.03
2022-10-23T02:50:10.012Z,13.03
2022-10-23T02:51:10.001Z,13.04
2022-10-23T02:52:09.981Z,13.03
2022-10-23T02:53:09.980Z,13.03
2022-10-23T02:54:09.952Z,13.04
2022-10-23T02:55:09.960Z,13.05
2022-10-23T02:56:09.930Z,13.05
2022-10-23T02:57:09.931Z,13.05
2022-10-23T02:58:09.930Z,13.04
2022-10-23T02:59:09.909Z,13.03
2022-10-23T03:00:09.902Z,13.03
2022-10-23T03:01:09.962Z,12.97
2022-10-23T03:02:09.942Z,12.96
2022-10-23T03:03:09.851Z,12.95
2022-10-23T03:04:09.830Z,12.92
2022-10-23T03:05:09.812Z,12.90
2022-10-23T03:06:09.800Z,12.90
2022-10-23T03:07:09.789Z,12.87
2022-10-23T03:08:09.790Z,12.87
2022-10-23T03:09:09.768Z,12.87
2022-10-23T03:10:09.756Z,12.90
2022-10-23T03:11:09.739Z,12.90
2022-10-23T03:12:09.728Z,12.89
2022-10-23T03:13:09.731Z,12.90
2022-10-23T03:14:09.697Z,12.89
2022-10-23T03:15:09.697Z,12.86
2022-10-23T03:16:09.667Z,12.85
2022-10-23T03:17:09.679Z,12.83
2022-10-23T03:18:09.656Z,12.79
2022-10-23T03:19:09.647Z,12.79
2022-10-23T03:20:09.616Z,12.79
2022-10-23T03:21:09.607Z,12.78
2022-10-23T03:22:09.606Z,12.77
2022-10-23T03:23:09.596Z,12.77
2022-10-23T03:24:09.568Z,12.74
2022-10-23T03:25:09.564Z,12.72
2022-10-23T03:26:09.544Z,12.70
2022-10-23T03:27:09.536Z,12.70
2022-10-23T03:28:09.536Z,12.67
2022-10-23T03:29:09.511Z,12.67
2022-10-23T03:30:09.485Z,12.65
2022-10-23T03:31:09.483Z,12.64
2022-10-23T03:32:09.471Z,12.62
2022-10-23T03:33:09.459Z,12.60
2022-10-23T03:34:09.444Z,12.60
2022-10-23T03:35:09.435Z,12.57
2022-10-23T03:36:09.425Z,12.56
2022-10-23T03:37:09.404Z,12.54
2022-10-23T03:38:09.395Z,12.53
2022-10-23T03:39:09.384Z,12.50
2022-10-23T03:40:09.355Z,12.49
2022-10-23T03:41:09.351Z,12.49
2022-10-23T03:42:09.334Z,12.47
2022-10-23T03:43:09.335Z,12.47
2022-10-23T03:44:09.306Z,12.46
2022-10-23T03:45:09.314Z,12.42
2022-10-23T03:46:09.297Z,12.42
2022-10-23T03:47:09.281Z,12.42
2022-10-23T03:48:09.274Z,12.41
2022-10-23T03:49:09.254Z,12.42
2022-10-23T03:50:09.232Z,12.42
2022-10-23T03:51:09.222Z,12.41
2022-10-23T03:52:09.202Z,12.39
2022-10-23T03:53:09.213Z,12.39
2022-10-23T03:54:09.182Z,12.41
2022-10-23T03:55:09.171Z,12.42
2022-10-23T03:56:09.151Z,12.45
2022-10-23T03:57:09.142Z,12.42
2022-10-23T03:58:09.141Z,12.42
2022-10-23T03:59:09.118Z,12.42
2022-10-23T04:00:09.101Z,12.41
2022-10-23T04:01:09.153Z,12.42
2022-10-23T04:02:09.157Z,12.41
2022-10-23T04:03:09.070Z,12.45
2022-10-23T04:04:09.052Z,12.46
2022-10-23T04:05:09.040Z,12.47
2022-10-23T04:06:09.031Z,12.47
2022-10-23T04:07:09.018Z,12.52
2022-10-23T04:08:09.018Z,12.52
2022-10-23T04:09:09.042Z,12.52
2022-10-23T04:10:08.970Z,12.52
2022-10-23T04:11:08.967Z,12.52
2022-10-23T04:12:08.948Z,12.52
2022-10-23T04:13:08.949Z,12.53
2022-10-23T04:14:08.938Z,12.52
2022-10-23T04:15:08.908Z,12.56
2022-10-23T04:16:08.890Z,12.57
2022-10-23T04:17:08.888Z,12.60
2022-10-23T04:18:08.891Z,12.62
2022-10-23T04:19:08.859Z,12.62
2022-10-23T04:20:08.842Z,12.64
2022-10-23T04:21:08.832Z,12.67
2022-10-23T04:22:08.808Z,12.68
2022-10-23T04:23:08.828Z,12.70
2022-10-23T04:24:08.786Z,12.67
2022-10-23T04:25:08.780Z,12.70
2022-10-23T04:26:08.771Z,12.74
2022-10-23T04:27:08.769Z,12.75
2022-10-23T04:28:08.747Z,12.75
2022-10-23T04:29:08.727Z,12.78
2022-10-23T04:30:08.706Z,12.79
2022-10-23T04:31:08.703Z,12.82
2022-10-23T04:32:08.687Z,12.82
2022-10-23T04:33:08.697Z,12.86
2022-10-23T04:34:08.659Z,12.92
2022-10-23T04:35:08.655Z,12.93
2022-10-23T04:36:08.635Z,12.95
2022-10-23T04:37:08.626Z,12.95
2022-10-23T04:38:08.619Z,12.95
2022-10-23T04:39:08.605Z,12.92
2022-10-23T04:40:08.597Z,12.93
2022-10-23T04:41:08.585Z,12.93
2022-10-23T04:42:08.564Z,12.95
2022-10-23T04:43:08.574Z,12.95
2022-10-23T04:44:08.535Z,12.96
2022-10-23T04:45:08.531Z,12.96
2022-10-23T04:46:08.514Z,12.96
2022-10-23T04:47:08.502Z,12.97
2022-10-23T04:48:08.494Z,13.00
2022-10-23T04:49:08.474Z,13.03
2022-10-23T04:50:08.454Z,13.03
2022-10-23T04:51:08.443Z,13.04
2022-10-23T04:52:08.432Z,13.07
2022-10-23T04:53:08.441Z,13.11
2022-10-23T04:54:08.403Z,13.12
2022-10-23T04:55:08.403Z,13.14
2022-10-23T04:56:08.382Z,13.15
2022-10-23T04:57:08.381Z,13.15
2022-10-23T04:58:08.362Z,13.19
2022-10-23T04:59:08.373Z,13.19
2022-10-23T05:00:08.333Z,13.20
2022-10-23T05:01:08.422Z,13.22
2022-10-23T05:02:08.301Z,13.23
2022-10-23T05:03:08.302Z,13.25
2022-10-23T05:04:08.301Z,13.25
2022-10-23T05:05:08.281Z,13.25
2022-10-23T05:06:08.253Z,13.25
2022-10-23T05:07:08.305Z,13.28
2022-10-23T05:08:08.241Z,13.28
2022-10-23T05:09:08.220Z,13.30
2022-10-23T05:10:08.201Z,13.26
2022-10-23T05:11:08.200Z,13.25
2022-10-23T05:12:08.180Z,13.26
2022-10-23T05:13:08.180Z,13.26
2022-10-23T05:14:08.150Z,13.26
2022-10-23T05:15:08.153Z,13.26
2022-10-23T05:16:08.130Z,13.25
2022-10-23T05:17:08.129Z,13.26
2022-10-23T05:18:08.109Z,13.28
2022-10-23T05:19:08.090Z,13.28
2022-10-23T05:20:08.070Z,13.26
2022-10-23T05:21:08.070Z,13.28
2022-10-23T05:22:08.059Z,13.26
2022-10-23T05:23:08.048Z,13.26
2022-10-23T05:24:08.021Z,13.25
2022-10-23T05:25:08.019Z,13.26
2022-10-23T05:26:07.999Z,13.23
2022-10-23T05:27:07.989Z,13.26
2022-10-23T05:28:07.990Z,13.26
2022-10-23T05:29:07.967Z,13.26
2022-10-23T05:30:07.947Z,13.25
2022-10-23T05:31:07.947Z,13.25
2022-10-23T05:32:07.958Z,13.23
2022-10-23T05:33:07.918Z,13.25
2022-10-23T05:34:11.181Z,13.26
2022-10-23T05:35:08.889Z,13.26
2022-10-23T05:36:07.875Z,13.26
2022-10-23T05:37:07.878Z,13.28
2022-10-23T05:38:07.857Z,13.25
2022-10-23T05:39:07.834Z,13.28
2022-10-23T05:40:07.818Z,13.26
2022-10-23T05:41:07.818Z,13.25
2022-10-23T05:42:07.798Z,13.25
2022-10-23T05:43:07.795Z,13.25
2022-10-23T05:44:07.784Z,13.26
2022-10-23T05:45:07.766Z,13.25
2022-10-23T05:46:07.836Z,13.28
2022-10-23T05:47:07.785Z,13.29
2022-10-23T05:48:16.673Z,13.32
2022-10-23T05:49:08.747Z,13.39
2022-10-23T05:50:07.714Z,13.41
2022-10-23T05:51:07.733Z,13.44
2022-10-23T05:52:07.712Z,13.46
2022-10-23T05:53:07.733Z,13.54
2022-10-23T05:54:07.698Z,13.57
2022-10-23T05:55:07.664Z,13.63
2022-10-23T05:56:07.613Z,13.66
2022-10-23T05:57:07.759Z,13.69
2022-10-23T05:58:07.605Z,13.71
2022-10-23T05:59:07.594Z,13.78
2022-10-23T06:00:07.563Z,13.81
2022-10-23T06:01:07.669Z,13.81
2022-10-23T06:02:07.596Z,13.81
2022-10-23T06:03:07.533Z,13.82
2022-10-23T06:04:07.516Z,13.84
2022-10-23T06:05:07.505Z,13.85
2022-10-23T06:06:07.492Z,13.85
2022-10-23T06:07:07.485Z,13.85
2022-10-23T06:08:07.483Z,13.84
2022-10-23T06:09:07.452Z,13.81
2022-10-23T06:10:07.463Z,13.81
2022-10-23T06:11:07.442Z,13.81
2022-10-23T06:12:07.411Z,13.78
2022-10-23T06:13:07.423Z,13.77
2022-10-23T06:14:07.391Z,13.77
2022-10-23T06:15:07.384Z,13.73
2022-10-23T06:16:09.635Z,13.71
2022-10-23T06:17:07.350Z,13.71
2022-10-23T06:18:07.351Z,13.73
2022-10-23T06:19:07.652Z,13.70
2022-10-23T06:20:07.318Z,13.70
2022-10-23T06:21:07.300Z,13.70
2022-10-23T06:22:07.312Z,13.71
2022-10-23T06:23:07.294Z,13.71
2022-10-23T06:24:07.270Z,13.71
2022-10-23T06:25:07.249Z,13.71
2022-10-23T06:26:07.253Z,13.71
2022-10-23T06:27:07.238Z,13.71
2022-10-23T06:28:07.231Z,13.70
2022-10-23T06:29:07.199Z,13.69
2022-10-23T06:30:07.197Z,13.69
2022-10-23T06:31:07.186Z,13.67
2022-10-23T06:32:07.179Z,13.66
2022-10-23T06:33:07.170Z,13.66
2022-10-23T06:34:07.150Z,13.67
2022-10-23T06:35:07.128Z,13.69
2022-10-23T06:36:07.128Z,13.70
2022-10-23T06:37:07.106Z,13.71
2022-10-23T06:38:07.137Z,13.71
2022-10-23T06:39:07.078Z,13.71
2022-10-23T06:40:07.065Z,13.71
2022-10-23T06:41:07.065Z,13.73
2022-10-23T06:42:07.036Z,13.73
2022-10-23T06:43:07.037Z,13.75
2022-10-23T06:44:07.017Z,13.75
2022-10-23T06:45:07.431Z,13.77
2022-10-23T06:46:07.006Z,13.78
2022-10-23T06:47:06.991Z,13.78
2022-10-23T06:48:06.975Z,13.79
2022-10-23T06:49:06.969Z,13.82
2022-10-23T06:50:09.572Z,13.84
2022-10-23T06:51:06.925Z,13.88
2022-10-23T06:52:14.266Z,13.89
2022-10-23T06:53:07.915Z,13.92
2022-10-23T06:54:06.875Z,13.97
2022-10-23T06:55:06.877Z,13.99
2022-10-23T06:56:06.857Z,14.00
2022-10-23T06:57:06.845Z,14.02
2022-10-23T06:58:06.838Z,14.04
2022-10-23T06:59:06.826Z,14.07
2022-10-23T07:00:06.815Z,14.10
2022-10-23T07:01:06.900Z,14.17
2022-10-23T07:02:06.775Z,14.20
2022-10-23T07:03:06.774Z,14.20
2022-10-23T07:04:06.753Z,14.24
2022-10-23T07:05:08.781Z,14.27
2022-10-23T07:06:07.734Z,14.32
2022-10-23T07:07:06.713Z,14.33
2022-10-23T07:08:06.717Z,14.35
2022-10-23T07:09:06.683Z,14.37
2022-10-23T07:10:06.751Z,14.42
2022-10-23T07:11:06.662Z,14.43
2022-10-23T07:12:06.675Z,14.45
2022-10-23T07:13:06.656Z,14.50
2022-10-23T07:14:06.623Z,14.54
2022-10-23T07:15:06.615Z,14.55
2022-10-23T07:16:06.602Z,14.55
2022-10-23T07:17:06.592Z,14.55
2022-10-23T07:18:06.641Z,14.57
2022-10-23T07:19:06.562Z,14.57
2022-10-23T07:20:06.556Z,14.60
2022-10-23T07:21:06.541Z,14.62
2022-10-23T07:22:06.531Z,14.64
2022-10-23T07:23:06.540Z,14.65
2022-10-23T07:24:06.491Z,14.72
2022-10-23T07:25:06.493Z,14.72
2022-10-23T07:26:06.470Z,14.73
2022-10-23T07:27:06.460Z,14.70
2022-10-23T07:28:06.450Z,14.72
2022-10-23T07:29:06.420Z,14.70
2022-10-23T07:30:06.419Z,14.72
2022-10-23T07:31:06.399Z,14.72
2022-10-23T07:32:06.389Z,14.73
2022-10-23T07:33:06.387Z,14.75
2022-10-23T07:34:06.369Z,14.78
2022-10-23T07:35:06.409Z,14.81
2022-10-23T07:36:06.336Z,14.81
2022-10-23T07:37:06.329Z,14.83
2022-10-23T07:38:06.339Z,14.83
2022-10-23T07:39:06.299Z,14.84
2022-10-23T07:40:06.287Z,14.84
2022-10-23T07:41:08.929Z,14.84
2022-10-23T07:42:07.257Z,14.84
2022-10-23T07:43:06.260Z,14.88
2022-10-23T07:44:06.227Z,14.88
2022-10-23T07:45:06.220Z,14.89
2022-10-23T07:46:06.207Z,14.89
2022-10-23T07:47:06.208Z,14.92
2022-10-23T07:48:06.196Z,14.94
2022-10-23T07:49:06.166Z,14.96
2022-10-23T07:50:06.147Z,14.96
2022-10-23T07:51:06.140Z,14.98
2022-10-23T07:52:06.163Z,14.99
2022-10-23T07:53:06.126Z,15.01
2022-10-23T07:54:06.127Z,14.99
2022-10-23T07:55:06.098Z,15.02
2022-10-23T07:56:06.077Z,15.02
2022-10-23T07:57:06.057Z,15.02
2022-10-23T07:58:06.062Z,15.03
2022-10-23T07:59:06.046Z,15.03
2022-10-23T08:00:06.021Z,15.06
2022-10-23T08:01:06.049Z,15.03
2022-10-23T08:02:06.037Z,15.07
2022-10-23T08:03:05.996Z,15.11
2022-10-23T08:04:05.965Z,15.11
2022-10-23T08:05:05.947Z,15.13
2022-10-23T08:06:05.944Z,15.16
2022-10-23T08:07:05.936Z,15.16
2022-10-23T08:08:05.925Z,15.17
2022-10-23T08:09:06.817Z,15.19
2022-10-23T08:10:05.883Z,15.20
2022-10-23T08:11:05.877Z,15.21
2022-10-23T08:12:05.855Z,15.25
2022-10-23T08:13:05.864Z,15.27
2022-10-23T08:14:05.834Z,15.28
2022-10-23T08:15:05.823Z,15.32
2022-10-23T08:16:05.813Z,15.34
2022-10-23T08:17:05.824Z,15.36
2022-10-23T08:18:05.793Z,15.39
2022-10-23T08:19:05.774Z,15.43
2022-10-23T08:20:05.755Z,15.44
2022-10-23T08:21:05.742Z,15.49
2022-10-23T08:22:05.723Z,15.51
2022-10-23T08:23:05.732Z,15.54
2022-10-23T08:24:05.692Z,15.59
2022-10-23T08:25:05.682Z,15.64
2022-10-23T08:26:05.675Z,15.68
2022-10-23T08:27:05.662Z,15.71
2022-10-23T08:28:06.381Z,15.74
2022-10-23T08:29:05.640Z,15.76
2022-10-23T08:30:05.621Z,15.82
2022-10-23T08:31:05.612Z,15.86
2022-10-23T08:32:05.592Z,15.89
2022-10-23T08:33:05.591Z,15.94
2022-10-23T08:34:05.563Z,16.00
2022-10-23T08:35:05.570Z,16.07
2022-10-23T08:36:05.531Z,16.12
2022-10-23T08:37:05.520Z,16.20
2022-10-23T08:38:05.523Z,16.23
2022-10-23T08:39:05.501Z,16.30
2022-10-23T08:40:05.480Z,16.35
2022-10-23T08:41:05.470Z,16.41
2022-10-23T08:42:05.500Z,16.45
2022-10-23T08:43:05.460Z,16.52
2022-10-23T08:44:05.429Z,16.60
2022-10-23T08:45:05.419Z,16.67
2022-10-23T08:46:08.607Z,16.73
2022-10-23T08:47:05.393Z,16.79
2022-10-23T08:48:05.400Z,16.85
2022-10-23T08:49:05.388Z,16.91
2022-10-23T08:50:05.347Z,16.96
2022-10-23T08:51:05.330Z,17.01
2022-10-23T08:52:06.510Z,17.07
2022-10-23T08:53:05.320Z,17.15
2022-10-23T08:54:05.296Z,17.22
2022-10-23T08:55:05.279Z,17.25
2022-10-23T08:56:05.267Z,17.31
2022-10-23T08:57:05.258Z,17.34
2022-10-23T08:58:05.256Z,17.37
2022-10-23T08:59:05.234Z,17.40
2022-10-23T09:00:05.209Z,17.44
2022-10-23T09:01:05.323Z,17.51
2022-10-23T09:02:05.445Z,17.55
2022-10-23T09:03:05.177Z,17.62
2022-10-23T09:04:05.158Z,17.68
2022-10-23T09:05:05.148Z,17.71
2022-10-23T09:06:05.126Z,17.74
2022-10-23T09:07:05.186Z,17.78
2022-10-23T09:08:05.116Z,17.78
2022-10-23T09:09:05.099Z,17.79
2022-10-23T09:10:05.111Z,17.81
2022-10-23T09:11:05.065Z,17.84
2022-10-23T09:12:05.069Z,17.86
2022-10-23T09:13:05.057Z,17.86
2022-10-23T09:14:05.038Z,17.87
2022-10-23T09:15:05.026Z,17.87
2022-10-23T09:16:05.006Z,17.90
2022-10-23T09:17:05.046Z,17.93
2022-10-23T09:18:04.995Z,17.93
2022-10-23T09:19:06.750Z,17.97
2022-10-23T09:20:05.956Z,17.99
2022-10-23T09:21:04.925Z,18.02
2022-10-23T09:22:04.915Z,18.03
2022-10-23T09:23:04.905Z,18.07
2022-10-23T09:24:04.905Z,18.10
2022-10-23T09:25:04.874Z,18.10
2022-10-23T09:26:04.865Z,18.11
2022-10-23T09:28:05.797Z,18.10
2022-10-23T09:29:04.814Z,18.11
2022-10-23T09:30:04.813Z,18.11
2022-10-23T09:31:04.804Z,18.12
2022-10-23T09:32:04.795Z,18.12
2022-10-23T09:33:04.782Z,18.10
2022-10-23T09:34:06.438Z,18.12
2022-10-23T09:35:04.748Z,18.12
2022-10-23T09:36:04.743Z,18.14
2022-10-23T09:37:04.713Z,18.15
2022-10-23T09:38:04.733Z,18.15
2022-10-23T09:39:04.693Z,18.17
2022-10-23T09:40:04.691Z,18.17
2022-10-23T09:41:04.683Z,18.17
2022-10-23T09:42:04.653Z,18.17
2022-10-23T09:43:04.654Z,18.15
2022-10-23T09:44:04.632Z,18.15
2022-10-23T09:45:04.615Z,18.14
2022-10-23T09:46:04.610Z,18.14
2022-10-23T09:47:04.587Z,18.14
2022-10-23T09:48:04.583Z,18.15
2022-10-23T09:49:05.794Z,18.17
2022-10-23T09:50:04.553Z,18.18
2022-10-23T09:51:04.540Z,18.18
2022-10-23T09:52:04.531Z,18.18
2022-10-23T09:53:04.543Z,18.20
2022-10-23T09:54:04.511Z,18.20
2022-10-23T09:55:04.489Z,18.21
2022-10-23T09:56:04.475Z,18.21
2022-10-23T09:57:04.461Z,18.21
2022-10-23T09:58:04.461Z,18.21
2022-10-23T09:59:04.441Z,18.23
2022-10-23T10:00:04.420Z,18.25
2022-10-23T10:01:04.488Z,18.25
2022-10-23T10:02:04.540Z,18.26
2022-10-23T10:03:04.383Z,18.27
2022-10-23T10:04:04.401Z,18.29
2022-10-23T10:05:04.359Z,18.29
2022-10-23T10:06:04.438Z,18.32
2022-10-23T10:07:04.460Z,18.33
2022-10-23T10:08:04.400Z,18.33
2022-10-23T10:09:04.409Z,18.36
2022-10-23T10:10:04.380Z,18.35
2022-10-23T10:11:04.281Z,18.37
2022-10-23T10:12:04.281Z,18.41
2022-10-23T10:13:04.253Z,18.44
2022-10-23T10:14:04.250Z,18.47
2022-10-23T10:15:04.239Z,18.48
2022-10-23T10:16:04.219Z,18.51
2022-10-23T10:17:04.210Z,18.52
2022-10-23T10:18:04.200Z,18.57
2022-10-23T10:19:04.188Z,18.58
2022-10-23T10:20:06.905Z,18.62
2022-10-23T10:21:04.148Z,18.63
2022-10-23T10:22:04.139Z,18.67
2022-10-23T10:23:04.144Z,18.69
2022-10-23T10:24:04.139Z,18.70
2022-10-23T10:25:04.109Z,18.73
2022-10-23T10:26:04.098Z,18.75
2022-10-23T10:27:04.081Z,18.75
2022-10-23T10:28:04.079Z,18.75
2022-10-23T10:29:04.057Z,18.75
2022-10-23T10:30:04.038Z,18.78
2022-10-23T10:31:04.019Z,18.78
2022-10-23T10:32:04.009Z,18.76
2022-10-23T10:33:04.006Z,18.76
2022-10-23T10:34:04.006Z,18.78
2022-10-23T10:35:03.972Z,18.80
2022-10-23T10:36:03.985Z,18.78
2022-10-23T10:37:03.947Z,18.78
2022-10-23T10:38:03.931Z,18.78
2022-10-23T10:39:03.937Z,18.80
2022-10-23T10:40:03.907Z,18.80
2022-10-23T10:41:03.887Z,18.80
2022-10-23T10:42:03.896Z,18.81
2022-10-23T10:43:03.876Z,18.81
2022-10-23T10:44:03.881Z,18.82
2022-10-23T10:45:03.835Z,18.82
2022-10-23T10:46:03.937Z,18.82
2022-10-23T10:47:03.816Z,18.80
2022-10-23T10:48:03.816Z,18.84
2022-10-23T10:49:03.795Z,18.82
2022-10-23T10:50:03.789Z,18.84
2022-10-23T10:51:03.765Z,18.84
2022-10-23T10:52:03.756Z,18.84
2022-10-23T10:53:03.745Z,18.85
2022-10-23T10:54:03.805Z,18.87
2022-10-23T10:55:03.725Z,18.87
2022-10-23T10:56:03.733Z,18.88
2022-10-23T10:57:03.695Z,18.90
2022-10-23T10:58:03.676Z,18.91
2022-10-23T10:59:03.685Z,18.91
2022-10-23T11:00:03.654Z,18.92
2022-10-23T11:01:03.779Z,18.94
2022-10-23T11:02:03.706Z,18.95
2022-10-23T11:03:03.614Z,18.99
2022-10-23T11:04:03.615Z,18.95
2022-10-23T11:05:03.609Z,18.99
2022-10-23T11:06:03.579Z,18.99
2022-10-23T11:07:03.566Z,18.99
2022-10-23T11:08:03.554Z,19.00
2022-10-23T11:09:19.652Z,19.02
2022-10-23T11:10:04.515Z,19.02
2022-10-23T11:11:03.525Z,19.00
2022-10-23T11:12:03.513Z,18.99
2022-10-23T11:13:03.494Z,19.00
2022-10-23T11:14:03.483Z,19.00
2022-10-23T11:15:03.463Z,19.04
2022-10-23T11:16:03.443Z,19.07
2022-10-23T11:17:03.440Z,19.10
2022-10-23T11:18:03.422Z,19.11
2022-10-23T11:19:03.412Z,19.11
2022-10-23T11:20:03.393Z,19.13
2022-10-23T11:21:03.389Z,19.13
2022-10-23T11:22:03.376Z,19.14
2022-10-23T11:23:03.373Z,19.14
2022-10-23T11:24:03.408Z,19.19
2022-10-23T11:25:03.333Z,19.22
2022-10-23T11:26:03.312Z,19.25
2022-10-23T11:27:03.314Z,19.29
2022-10-23T11:28:05.282Z,19.31
2022-10-23T11:29:03.289Z,19.32
2022-10-23T11:30:04.000Z,19.33
2022-10-23T11:31:03.253Z,19.37
2022-10-23T11:32:03.246Z,19.41
2022-10-23T11:33:03.231Z,19.44
2022-10-23T11:34:03.223Z,19.47
2022-10-23T11:35:03.232Z,19.50
2022-10-23T11:36:03.185Z,19.51
2022-10-23T11:37:03.182Z,19.54
2022-10-23T11:38:03.180Z,19.56
2022-10-23T11:39:03.161Z,19.58
2022-10-23T11:40:03.146Z,19.61
2022-10-23T11:41:03.132Z,19.63
2022-10-23T11:42:03.112Z,19.62
2022-10-23T11:43:03.102Z,19.62
2022-10-23T11:44:03.102Z,19.62
2022-10-23T11:45:03.085Z,19.62
2022-10-23T11:46:03.066Z,19.61
2022-10-23T11:47:03.050Z,19.62
2022-10-23T11:48:03.181Z,19.65
2022-10-23T11:49:03.077Z,19.66
2022-10-23T11:50:03.014Z,19.66
2022-10-23T11:51:05.110Z,19.66
2022-10-23T11:52:02.995Z,19.66
2022-10-23T11:53:13.694Z,19.68
2022-10-23T11:54:03.969Z,19.68
2022-10-23T11:55:02.958Z,19.69
2022-10-23T11:56:02.931Z,19.73
2022-10-23T11:57:02.938Z,19.77
2022-10-23T11:58:02.907Z,19.80
2022-10-23T11:59:02.909Z,19.84
2022-10-23T12:00:02.879Z,19.84
2022-10-23T12:01:02.936Z,19.87
2022-10-23T12:02:02.875Z,19.91
2022-10-23T12:03:02.876Z,19.94
2022-10-23T12:04:02.848Z,19.95
2022-10-23T12:05:02.819Z,19.95
2022-10-23T12:06:02.806Z,19.96
2022-10-23T12:07:02.787Z,19.98
2022-10-23T12:08:02.773Z,19.96
2022-10-23T12:09:02.768Z,19.96
2022-10-23T12:10:02.748Z,19.96
2022-10-23T12:11:02.738Z,19.95
2022-10-23T12:12:02.721Z,19.96
2022-10-23T12:13:02.708Z,19.98
2022-10-23T12:14:02.755Z,19.96
2022-10-23T12:15:02.702Z,19.96
2022-10-23T12:16:02.679Z,19.98
2022-10-23T12:17:02.658Z,19.96
2022-10-23T12:18:02.650Z,19.95
2022-10-23T12:19:02.637Z,19.96
2022-10-23T12:20:02.628Z,19.96
2022-10-23T12:21:02.602Z,19.95
2022-10-23T12:22:02.597Z,19.98
2022-10-23T12:23:02.578Z,20.02
2022-10-23T12:24:02.579Z,20.02
2022-10-23T12:25:02.558Z,20.02
2022-10-23T12:26:02.550Z,20.03
2022-10-23T12:27:02.536Z,20.02
2022-10-23T12:28:02.533Z,20.02
2022-10-23T12:29:02.510Z,20.03
2022-10-23T12:30:02.501Z,20.05
2022-10-23T12:31:02.486Z,20.08
2022-10-23T12:32:02.468Z,20.10
2022-10-23T12:33:02.451Z,20.13
2022-10-23T12:34:02.471Z,20.13
2022-10-23T12:35:02.446Z,20.16
2022-10-23T12:36:02.417Z,20.17
2022-10-23T12:37:02.396Z,20.18
2022-10-23T12:38:02.391Z,20.23
2022-10-23T12:39:02.387Z,20.26
2022-10-23T12:40:02.360Z,20.29
2022-10-23T12:41:02.372Z,20.29
2022-10-23T12:42:02.336Z,20.29
2022-10-23T12:43:02.330Z,20.26
2022-10-23T12:44:02.330Z,20.28
2022-10-23T12:45:02.303Z,20.29
2022-10-23T12:46:02.287Z,20.32
2022-10-23T12:47:02.289Z,20.32
2022-10-23T12:48:02.277Z,20.33
2022-10-23T12:49:02.255Z,20.36
2022-10-23T12:50:02.235Z,20.36
2022-10-23T12:51:02.246Z,20.38
2022-10-23T12:52:02.215Z,20.41
2022-10-23T12:53:02.199Z,20.42
2022-10-23T12:54:02.196Z,20.42